createdAt,value
2018-02-20T06:15:33.396Z,97171.81
2018-02-20T06:18:03.062Z,97176.20
2018-02-20T06:20:46.606Z,97173.05
2018-02-20T06:27:24.703Z,97168.92
2018-02-20T06:29:54.470Z,97161.79
2018-02-20T06:32:24.116Z,97161.19
2018-02-20T06:34:53.975Z,97159.38
2018-02-20T06:37:25.366Z,97161.91
2018-02-20T06:43:18.515Z,97164.92
2018-02-20T06:45:48.420Z,97163.19
2018-02-20T06:48:17.948Z,97159.71
2018-02-20T06:50:52.712Z,97157.91
2018-02-20T06:53:24.271Z,97158.55
2018-02-20T06:59:04.874Z,97167.92
2018-02-20T07:01:41.957Z,97160.48
2018-02-20T07:04:11.563Z,97162.59
2018-02-20T07:06:44.581Z,97161.09
2018-02-20T07:09:14.850Z,97162.45
2018-02-20T07:11:49.237Z,97171.30
2018-02-20T07:14:18.991Z,97163.13
2018-02-20T07:59:10.985Z,97167.11
2018-02-20T08:01:40.728Z,97156.45
2018-02-20T08:04:10.252Z,97164.20
2018-02-20T08:06:39.771Z,97152.88
2018-02-20T08:09:09.361Z,97162.38
2018-02-20T08:11:39.106Z,97155.27
2018-02-20T08:14:08.734Z,97162.12
2018-02-20T08:16:39.168Z,97153.18
2018-02-20T08:19:08.628Z,97155.14
2018-02-20T08:21:38.178Z,97157.34
2018-02-20T08:24:07.972Z,97158.23
2018-02-20T08:26:37.867Z,97153.41
2018-02-20T08:29:07.540Z,97147.30
2018-02-20T08:31:37.240Z,97153.81
2018-02-20T08:34:06.817Z,97154.28
2018-02-20T08:36:36.608Z,97154.87
2018-02-20T08:39:06.054Z,97153.86
2018-02-20T08:41:35.447Z,97150.39
2018-02-20T08:44:05.147Z,97157.37
2018-02-20T08:46:34.754Z,97151.44
2018-02-20T08:49:04.537Z,97156.59
2018-02-20T08:51:34.146Z,97155.45
2018-02-20T08:54:04.146Z,97151.69
2018-02-20T08:57:00.832Z,97151.86
2018-02-20T08:59:32.559Z,97151.22
2018-02-20T09:02:02.447Z,97154.77
2018-02-20T09:04:32.389Z,97153.25
2018-02-20T09:07:02.753Z,97156.37
2018-02-20T09:09:32.920Z,97153.48
2018-02-20T09:12:02.375Z,97153.77
2018-02-20T09:14:31.937Z,97152.33
2018-02-20T09:17:01.593Z,97146.73
2018-02-20T09:19:31.710Z,97153.08
2018-02-20T09:22:01.351Z,97143.22
2018-02-20T09:24:30.884Z,97147.06
2018-02-20T09:27:01.320Z,97139.33
2018-02-20T09:29:30.923Z,97143.73
2018-02-20T09:32:00.536Z,97137.16
2018-02-20T09:34:29.968Z,97131.00
2018-02-20T09:36:59.455Z,97134.42
2018-02-20T09:39:28.878Z,97138.13
2018-02-20T09:41:59.104Z,97144.45
2018-02-20T09:44:28.517Z,97147.62
2018-02-20T09:46:58.001Z,97146.97
2018-02-20T09:49:27.454Z,97141.67
2018-02-20T09:51:57.659Z,97144.45
2018-02-20T09:54:27.261Z,97142.57
2018-02-20T09:56:56.811Z,97139.58
2018-02-20T09:59:26.381Z,97138.59
2018-02-20T10:01:56.247Z,97140.47
2018-02-20T10:04:26.015Z,97134.53
2018-02-20T10:06:55.803Z,97133.47
2018-02-20T10:09:26.334Z,97139.45
2018-02-20T10:11:56.155Z,97134.55
2018-02-20T10:14:25.801Z,97138.27
2018-02-20T10:16:55.447Z,97137.17
2018-02-20T10:19:25.219Z,97133.30
2018-02-20T10:21:55.760Z,97130.11
2018-02-20T10:24:26.338Z,97131.47
2018-02-20T10:26:56.351Z,97119.27
2018-02-20T10:29:25.800Z,97111.95
2018-02-20T10:31:55.427Z,97110.02
2018-02-20T10:34:25.029Z,97107.55
2018-02-20T10:36:54.770Z,97096.27
2018-02-20T10:39:36.112Z,97103.88
2018-02-20T10:42:06.136Z,97097.59
2018-02-20T10:44:35.735Z,97100.56
2018-02-20T10:47:05.476Z,97090.88
2018-02-20T10:49:35.349Z,97090.53
2018-02-20T10:52:05.532Z,97090.95
2018-02-20T10:54:34.980Z,97088.98
2018-02-20T10:57:09.191Z,97081.36
2018-02-20T10:59:38.817Z,97085.55
2018-02-20T11:02:08.247Z,97075.78
2018-02-20T11:04:37.766Z,97075.63
2018-02-20T11:07:07.367Z,97076.30
2018-02-20T11:09:38.408Z,97077.30
2018-02-20T11:12:07.944Z,97070.69
2018-02-20T11:14:37.782Z,97064.63
2018-02-20T11:17:07.161Z,97064.12
2018-02-20T11:19:36.562Z,97060.02
2018-02-20T11:22:06.673Z,97056.23
2018-02-20T11:24:36.579Z,97058.58
2018-02-20T11:27:06.765Z,97047.44
2018-02-20T11:29:37.290Z,97047.96
2018-02-20T11:32:10.279Z,97040.36
2018-02-20T11:34:40.242Z,97037.39
2018-02-20T11:37:10.920Z,97035.87
2018-02-20T11:39:40.827Z,97029.47
2018-02-20T13:25:50.833Z,96983.71
2018-02-20T13:28:39.890Z,96979.61
2018-02-20T13:31:09.654Z,96973.98
2018-02-20T13:33:39.450Z,96978.30
2018-02-20T13:36:09.144Z,96978.33
2018-02-20T13:38:38.702Z,96977.30
2018-02-20T13:41:08.365Z,96982.67
2018-02-20T13:43:37.821Z,96984.09
2018-02-20T13:46:07.173Z,96981.66
2018-02-20T13:48:36.803Z,96981.94
2018-02-20T13:51:07.472Z,96979.61
2018-02-20T13:53:37.119Z,96984.42
2018-02-20T13:56:06.567Z,96985.20
2018-02-20T13:58:36.096Z,96977.53
2018-02-20T14:01:05.897Z,96985.56
2018-02-20T14:03:36.155Z,96987.91
2018-02-20T14:06:06.591Z,96985.66
2018-02-20T14:08:36.088Z,96977.39
2018-02-20T14:11:06.093Z,96989.19
2018-02-20T14:13:35.431Z,96994.02
2018-02-20T14:16:05.198Z,96980.14
2018-02-20T14:18:34.834Z,96983.73
2018-02-20T14:21:05.092Z,96988.20
2018-02-20T14:23:34.969Z,96986.02
2018-02-20T14:26:04.390Z,96985.13
2018-02-20T14:28:34.105Z,96987.19
2018-02-20T14:31:03.998Z,96987.67
2018-02-20T14:33:33.526Z,96978.69
2018-02-20T14:36:05.097Z,96983.00
2018-02-20T14:38:35.616Z,96980.69
2018-02-20T14:41:05.163Z,96980.63
2018-02-20T14:43:34.697Z,96983.13
2018-02-20T14:46:08.778Z,96982.55
2018-02-20T15:02:43.530Z,96982.70
2018-02-20T15:05:16.614Z,96981.80
2018-02-20T15:07:54.178Z,96985.28
2018-02-20T15:10:23.944Z,96986.59
2018-02-20T15:12:53.606Z,96986.83
2018-02-20T15:15:23.139Z,96985.58
2018-02-20T15:17:52.697Z,96992.80
2018-02-20T15:20:22.329Z,96991.95
2018-02-20T15:22:51.804Z,96991.95
2018-02-20T15:25:21.286Z,96993.48
2018-02-20T15:27:50.754Z,96993.85
2018-02-20T15:30:20.123Z,96994.58
2018-02-20T15:32:49.486Z,96991.95
2018-02-20T15:35:18.810Z,96997.42
2018-02-20T15:37:48.285Z,97002.31
2018-02-20T15:40:17.723Z,97006.24
2018-02-20T15:42:47.181Z,97001.69
2018-02-20T15:45:16.654Z,96998.84
2018-02-20T15:47:46.527Z,97004.28
2018-02-20T17:25:42.703Z,97045.70
2018-02-20T17:28:12.448Z,97045.88
2018-02-20T17:30:42.271Z,97045.91
2018-02-20T17:33:12.259Z,97049.53
2018-02-20T17:35:43.132Z,97053.32
2018-02-20T17:38:13.209Z,97051.52
2018-02-20T17:40:42.621Z,97056.04
2018-02-20T17:43:12.236Z,97060.33
2018-02-20T17:45:41.837Z,97055.80
2018-02-20T17:48:12.318Z,97060.63
2018-02-20T17:50:42.044Z,97060.25
2018-02-20T17:53:11.522Z,97059.18
2018-02-20T18:02:20.792Z,97066.02
2018-02-20T18:04:50.370Z,97066.38
2018-02-20T18:07:19.886Z,97066.01
2018-02-20T18:09:49.662Z,97065.02
2018-02-20T18:12:19.276Z,97074.00
2018-02-20T18:14:48.857Z,97064.41
2018-02-20T19:41:34.625Z,97123.02
2018-02-20T19:44:04.237Z,97121.05
2018-02-20T19:46:33.944Z,97118.30
2018-02-20T19:49:04.184Z,97116.57
2018-02-20T19:51:34.353Z,97110.30
2018-02-20T19:54:04.174Z,97116.15
2018-02-20T20:00:09.745Z,97117.31
2018-02-20T20:02:39.380Z,97117.19
2018-02-20T20:05:08.784Z,97120.80
2018-02-20T20:07:38.203Z,97123.57
2018-02-20T20:10:07.647Z,97122.59
2018-02-20T20:12:37.573Z,97127.91
2018-02-20T20:15:07.237Z,97135.63
2018-02-20T20:17:37.165Z,97138.16
2018-02-20T20:20:06.702Z,97139.72
2018-02-20T20:22:36.361Z,97136.14
2018-02-20T20:25:05.925Z,97134.34
2018-02-20T20:27:35.615Z,97133.28
2018-02-20T20:30:05.560Z,97128.24
2018-02-20T20:32:35.202Z,97139.98
